createdAt,value
2022-12-27T00:02:21.180Z,3.06
2022-12-27T00:04:50.253Z,3.06
2022-12-27T00:07:17.927Z,3.04
2022-12-27T00:09:45.654Z,3.06
2022-12-27T00:12:13.277Z,3.01
2022-12-27T00:14:41.113Z,2.96
2022-12-27T00:17:10.206Z,3.02
2022-12-27T00:19:37.800Z,2.98
2022-12-27T00:22:05.741Z,2.98
2022-12-27T00:24:35.254Z,2.97
2022-12-27T00:27:02.943Z,3.00
2022-12-27T00:29:30.649Z,3.00
2022-12-27T00:31:58.426Z,3.02
2022-12-27T00:34:27.417Z,3.06
2022-12-27T00:36:55.035Z,3.06
2022-12-27T00:39:22.978Z,3.08
2022-12-27T00:41:51.797Z,3.09
2022-12-27T00:44:19.684Z,3.12
2022-12-27T00:46:47.295Z,3.14
2022-12-27T00:49:14.906Z,3.10
2022-12-27T00:51:43.900Z,3.10
2022-12-27T00:54:11.526Z,3.10
2022-12-27T00:56:39.396Z,3.11
2022-12-27T00:59:57.988Z,3.12
2022-12-27T01:06:34.700Z,3.12
2022-12-27T01:09:05.261Z,3.10
2022-12-27T01:11:34.953Z,3.09
2022-12-27T01:14:04.289Z,3.08
2022-12-27T01:16:33.744Z,3.06
2022-12-27T01:19:02.172Z,3.05
2022-12-27T01:21:31.228Z,3.08
2022-12-27T01:23:59.749Z,3.06
2022-12-27T01:26:28.781Z,3.06
2022-12-27T01:28:56.438Z,3.09
2022-12-27T01:31:28.049Z,3.09
2022-12-27T01:33:57.029Z,3.02
2022-12-27T01:36:27.868Z,2.99
2022-12-27T01:38:59.044Z,2.99
2022-12-27T01:41:49.159Z,3.03
2022-12-27T01:47:50.482Z,2.98
2022-12-27T01:50:25.685Z,2.95
2022-12-27T01:52:58.124Z,2.93
2022-12-27T01:55:32.933Z,2.92
2022-12-27T01:58:06.130Z,2.93
2022-12-27T02:00:34.841Z,2.91
2022-12-27T02:03:06.349Z,2.92
2022-12-27T02:05:34.956Z,2.93
2022-12-27T02:08:11.954Z,2.95
2022-12-27T02:10:40.544Z,2.91
2022-12-27T02:13:09.790Z,2.88
2022-12-27T02:15:37.692Z,2.90
2022-12-27T02:18:05.583Z,2.99
2022-12-27T02:20:48.732Z,2.93
2022-12-27T02:23:57.140Z,2.92
2022-12-27T02:26:37.926Z,2.90
2022-12-27T02:29:39.143Z,2.89
2022-12-27T02:32:10.701Z,2.89
2022-12-27T02:34:49.634Z,2.90
2022-12-27T02:37:18.125Z,2.87
2022-12-27T02:39:49.351Z,2.90
2022-12-27T02:42:36.900Z,2.90
2022-12-27T02:48:48.169Z,3.03
2022-12-27T02:51:48.268Z,2.98
2022-12-27T02:54:30.159Z,3.01
2022-12-27T02:57:09.402Z,3.01
2022-12-27T03:00:23.025Z,3.03
2022-12-27T03:03:24.584Z,3.03
2022-12-27T03:06:36.891Z,3.05
2022-12-27T03:09:34.356Z,3.05
2022-12-27T03:12:27.738Z,3.07
2022-12-27T03:15:21.751Z,3.05
2022-12-27T03:17:59.247Z,3.09
2022-12-27T03:24:02.611Z,3.08
2022-12-27T03:26:36.141Z,3.10
2022-12-27T03:29:23.608Z,3.21
2022-12-27T03:32:13.978Z,3.18
2022-12-27T03:34:45.779Z,3.20
2022-12-27T03:37:37.157Z,3.17
2022-12-27T03:40:11.080Z,3.24
2022-12-27T03:43:05.892Z,3.36
2022-12-27T03:45:54.193Z,3.28
2022-12-27T03:48:26.138Z,3.35
2022-12-27T03:50:55.913Z,3.32
2022-12-27T03:53:32.133Z,3.42
2022-12-27T03:56:02.625Z,3.39
2022-12-27T03:58:31.602Z,3.37
2022-12-27T04:01:01.284Z,3.36
2022-12-27T04:03:31.196Z,3.43
2022-12-27T04:05:59.037Z,3.41
2022-12-27T04:08:45.646Z,3.46
2022-12-27T04:11:31.159Z,3.41
2022-12-27T04:14:17.088Z,3.40
2022-12-27T04:17:02.411Z,3.46
2022-12-27T04:19:47.631Z,3.36
2022-12-27T04:22:33.168Z,3.43
2022-12-27T04:25:21.784Z,3.40
2022-12-27T04:28:07.446Z,3.45
2022-12-27T04:30:54.107Z,3.40
2022-12-27T04:33:40.126Z,3.40
2022-12-27T04:36:08.834Z,3.49
2022-12-27T04:38:36.477Z,3.42
2022-12-27T04:41:24.151Z,3.41
2022-12-27T04:44:10.079Z,3.46
2022-12-27T04:46:58.052Z,3.48
2022-12-27T04:49:45.455Z,3.51
2022-12-27T04:52:33.686Z,3.54
2022-12-27T04:55:08.180Z,3.52
2022-12-27T04:57:37.191Z,3.50
2022-12-27T05:00:25.066Z,3.55
2022-12-27T05:02:55.356Z,3.52
2022-12-27T05:05:47.951Z,3.50
2022-12-27T05:08:34.907Z,3.60
2022-12-27T05:11:20.447Z,3.57
2022-12-27T05:14:04.137Z,3.59
2022-12-27T05:16:38.323Z,3.61
2022-12-27T05:19:08.685Z,3.60
2022-12-27T05:21:37.613Z,3.70
2022-12-27T05:24:23.781Z,3.70
2022-12-27T05:26:52.049Z,3.75
2022-12-27T05:29:20.967Z,3.77
2022-12-27T05:31:48.707Z,3.81
2022-12-27T05:34:16.593Z,3.80
2022-12-27T05:36:44.262Z,3.78
2022-12-27T05:39:12.163Z,3.83
2022-12-27T05:41:41.257Z,3.75
2022-12-27T05:44:09.660Z,3.76
2022-12-27T05:46:38.686Z,3.75
2022-12-27T05:49:07.075Z,3.84
2022-12-27T05:51:35.260Z,3.77
2022-12-27T05:54:02.843Z,3.80
2022-12-27T05:56:36.161Z,3.81
2022-12-27T05:59:08.178Z,3.83
2022-12-27T06:01:36.390Z,3.91
2022-12-27T06:04:06.303Z,3.92
2022-12-27T06:06:35.314Z,3.95
2022-12-27T06:09:03.260Z,4.03
2022-12-27T06:11:31.574Z,4.00
2022-12-27T06:13:59.826Z,4.09
2022-12-27T06:16:27.659Z,4.13
2022-12-27T06:18:55.398Z,4.10
2022-12-27T06:21:25.146Z,4.10
2022-12-27T06:23:52.911Z,4.17
2022-12-27T06:26:23.548Z,4.18
2022-12-27T06:28:52.097Z,4.21
2022-12-27T06:31:20.794Z,4.23
2022-12-27T06:33:50.255Z,4.28
2022-12-27T06:36:49.821Z,4.31
2022-12-27T06:39:17.579Z,4.38
2022-12-27T06:41:45.444Z,4.38
2022-12-27T06:44:13.342Z,4.39
2022-12-27T06:46:40.952Z,4.46
2022-12-27T06:49:08.729Z,4.47
2022-12-27T06:51:37.579Z,4.53
2022-12-27T06:54:06.559Z,4.40
2022-12-27T06:56:34.680Z,4.35
2022-12-27T06:59:02.253Z,4.43
2022-12-27T07:01:55.633Z,4.44
2022-12-27T07:04:23.669Z,4.38
2022-12-27T07:06:51.273Z,4.41
2022-12-27T07:09:20.349Z,4.36
2022-12-27T07:11:47.961Z,4.37
2022-12-27T07:14:15.958Z,4.38
2022-12-27T07:16:43.566Z,4.37
2022-12-27T07:19:14.157Z,4.40
2022-12-27T07:21:42.913Z,4.39
2022-12-27T07:24:11.153Z,4.42
2022-12-27T07:26:40.959Z,4.41
2022-12-27T07:29:10.796Z,4.34
2022-12-27T07:31:40.314Z,4.34
2022-12-27T07:34:08.144Z,4.35
2022-12-27T07:36:39.792Z,4.31
2022-12-27T07:39:09.487Z,4.27
2022-12-27T07:41:39.233Z,4.25
2022-12-27T07:44:11.124Z,4.17
2022-12-27T07:46:41.120Z,4.14
2022-12-27T07:49:17.403Z,4.13
2022-12-27T07:51:45.612Z,4.07
2022-12-27T07:54:13.572Z,4.03
2022-12-27T07:56:42.655Z,4.01
2022-12-27T07:59:13.580Z,3.97
2022-12-27T08:02:03.656Z,3.96
2022-12-27T08:04:32.689Z,3.93
2022-12-27T08:07:03.918Z,3.96
2022-12-27T08:09:34.859Z,3.88
2022-12-27T08:12:02.497Z,3.89
2022-12-27T08:14:31.791Z,3.87
2022-12-27T08:17:04.743Z,3.87
2022-12-27T08:19:33.338Z,3.87
2022-12-27T08:22:01.116Z,3.86
2022-12-27T08:24:28.855Z,3.82
2022-12-27T08:26:56.495Z,3.82
2022-12-27T08:29:25.579Z,3.84
2022-12-27T08:31:55.227Z,3.85
2022-12-27T08:34:23.763Z,3.83
2022-12-27T08:36:55.861Z,3.86
2022-12-27T08:39:24.725Z,3.89
2022-12-27T08:41:53.797Z,3.85
2022-12-27T08:44:21.678Z,3.90
2022-12-27T08:46:49.738Z,3.91
2022-12-27T08:49:18.808Z,3.90
2022-12-27T08:51:46.414Z,3.92
2022-12-27T08:54:14.100Z,3.95
2022-12-27T08:56:42.149Z,3.93
2022-12-27T08:59:09.788Z,3.95
2022-12-27T09:01:37.722Z,3.95
2022-12-27T09:04:06.148Z,4.00
2022-12-27T09:06:35.277Z,4.01
2022-12-27T09:09:02.994Z,4.02
2022-12-27T09:11:33.035Z,4.04
2022-12-27T09:14:02.597Z,4.01
2022-12-27T09:16:31.088Z,4.06
2022-12-27T09:19:00.707Z,4.14
2022-12-27T09:21:30.219Z,4.13
2022-12-27T09:23:59.355Z,4.16
2022-12-27T09:26:29.053Z,4.18
2022-12-27T09:28:58.126Z,4.23
2022-12-27T09:31:27.119Z,4.21
2022-12-27T09:33:55.744Z,4.29
2022-12-27T09:36:26.149Z,4.29
2022-12-27T09:38:55.397Z,4.34
2022-12-27T09:44:35.880Z,4.46
2022-12-27T09:47:10.213Z,4.44
2022-12-27T09:49:40.114Z,4.49
2022-12-27T09:52:35.301Z,4.58
2022-12-27T09:55:42.259Z,4.61
2022-12-27T09:58:43.925Z,4.61
2022-12-27T10:01:22.212Z,4.63
2022-12-27T10:03:51.140Z,4.69
2022-12-27T10:06:36.135Z,4.75
2022-12-27T10:09:17.997Z,4.74
2022-12-27T10:11:56.592Z,4.81
2022-12-27T10:14:42.982Z,4.95
2022-12-27T10:17:21.355Z,4.81
2022-12-27T10:19:57.531Z,4.86
2022-12-27T10:22:35.351Z,4.97
2022-12-27T10:25:06.949Z,4.96
2022-12-27T10:27:34.883Z,5.10
2022-12-27T10:30:07.647Z,5.06
2022-12-27T10:32:39.418Z,5.11
2022-12-27T10:35:07.923Z,5.17
2022-12-27T10:37:35.652Z,5.16
2022-12-27T10:40:13.152Z,5.15
2022-12-27T10:42:46.636Z,5.16
2022-12-27T10:45:28.182Z,5.20
2022-12-27T10:47:58.377Z,5.22
2022-12-27T10:50:29.441Z,5.24
2022-12-27T10:52:57.785Z,5.23
2022-12-27T10:55:37.183Z,5.29
2022-12-27T10:58:21.923Z,5.33
2022-12-27T11:00:58.578Z,5.48
2022-12-27T11:03:28.250Z,5.46
2022-12-27T11:08:55.885Z,5.46
2022-12-27T11:11:27.617Z,5.43
2022-12-27T11:14:11.168Z,5.48
2022-12-27T11:16:42.058Z,5.55
2022-12-27T11:19:24.147Z,5.56
2022-12-27T11:21:54.436Z,5.57
2022-12-27T11:24:25.136Z,5.63
2022-12-27T11:26:58.101Z,5.74
2022-12-27T11:29:28.176Z,5.64
2022-12-27T11:31:59.007Z,5.62
2022-12-27T11:34:33.648Z,5.68
2022-12-27T11:37:07.183Z,5.67
2022-12-27T11:39:40.701Z,5.67
2022-12-27T11:42:14.020Z,5.70
2022-12-27T11:44:46.908Z,5.73
2022-12-27T11:47:24.436Z,5.73
2022-12-27T11:49:56.054Z,5.78
2022-12-27T11:52:41.173Z,5.81
2022-12-27T11:55:29.023Z,5.74
2022-12-27T11:58:25.905Z,5.69
2022-12-27T12:01:05.688Z,5.63
2022-12-27T12:04:00.666Z,5.75
2022-12-27T12:06:45.992Z,5.75
2022-12-27T12:09:36.192Z,5.87
2022-12-27T12:12:29.353Z,5.88
2022-12-27T12:15:33.661Z,5.93
2022-12-27T12:18:25.151Z,6.02
2022-12-27T12:21:16.188Z,6.07
2022-12-27T12:24:00.548Z,6.19
2022-12-27T12:26:35.107Z,6.24
2022-12-27T12:29:17.950Z,6.33
2022-12-27T12:32:19.398Z,6.32
2022-12-27T12:34:59.232Z,6.43
2022-12-27T12:37:48.172Z,6.46
2022-12-27T12:40:32.431Z,6.66
2022-12-27T12:43:14.309Z,6.55
2022-12-27T12:45:59.215Z,6.61
2022-12-27T12:48:55.223Z,6.67
2022-12-27T12:51:45.866Z,6.69
2022-12-27T12:54:29.047Z,6.79
2022-12-27T12:57:11.963Z,6.82
2022-12-27T13:00:05.159Z,6.82
2022-12-27T13:02:59.446Z,6.89
2022-12-27T13:05:34.265Z,6.95
2022-12-27T13:08:34.297Z,6.96
2022-12-27T13:11:19.226Z,6.95
2022-12-27T13:14:03.048Z,7.03
2022-12-27T13:16:45.807Z,6.98
2022-12-27T13:19:33.454Z,7.02
2022-12-27T13:22:37.630Z,7.04
2022-12-27T13:25:18.261Z,6.99
2022-12-27T13:28:00.277Z,7.01
2022-12-27T13:30:32.173Z,7.04
2022-12-27T13:33:22.877Z,7.04
2022-12-27T13:36:07.915Z,7.02
2022-12-27T13:39:00.467Z,7.00
2022-12-27T13:41:39.870Z,6.92
2022-12-27T13:44:31.743Z,6.91
2022-12-27T13:47:29.440Z,6.93
2022-12-27T13:50:21.836Z,6.91
2022-12-27T13:53:04.046Z,6.92
2022-12-27T13:55:42.329Z,6.88
2022-12-27T13:58:45.048Z,6.89
2022-12-27T14:01:45.488Z,6.85
2022-12-27T14:04:43.156Z,6.82
2022-12-27T14:07:34.781Z,6.82
2022-12-27T14:10:30.431Z,6.79
2022-12-27T14:13:01.565Z,6.78
2022-12-27T14:15:54.204Z,6.78
2022-12-27T14:18:34.862Z,6.77
2022-12-27T14:21:18.253Z,6.76
2022-12-27T14:23:59.632Z,6.75
2022-12-27T14:26:53.313Z,6.73
2022-12-27T14:30:02.161Z,6.67
2022-12-27T14:33:05.363Z,6.67
2022-12-27T14:36:08.162Z,6.64
2022-12-27T14:39:08.614Z,6.60
2022-12-27T14:42:16.026Z,6.60
2022-12-27T14:45:19.242Z,6.59
2022-12-27T14:48:17.961Z,6.53
2022-12-27T14:51:41.483Z,6.49
2022-12-27T14:54:26.189Z,6.52
2022-12-27T14:57:05.635Z,6.49
2022-12-27T14:59:54.236Z,6.50
2022-12-27T15:02:45.900Z,6.48
2022-12-27T15:05:32.061Z,6.47
2022-12-27T15:08:20.872Z,6.45
2022-12-27T15:11:03.226Z,6.43
2022-12-27T15:13:40.221Z,6.42
2022-12-27T15:16:16.966Z,6.39
2022-12-27T15:19:01.962Z,6.36
2022-12-27T15:21:51.036Z,6.36
2022-12-27T15:24:54.178Z,6.34
2022-12-27T15:27:29.076Z,6.34
2022-12-27T15:30:12.210Z,6.31
2022-12-27T15:32:53.448Z,6.29
2022-12-27T15:35:54.281Z,6.25
2022-12-27T15:38:42.081Z,6.28
2022-12-27T15:41:24.171Z,6.22
2022-12-27T15:44:10.930Z,6.18
2022-12-27T15:46:59.773Z,6.18
2022-12-27T15:50:00.141Z,6.14
2022-12-27T15:52:39.496Z,6.15
2022-12-27T15:55:22.170Z,6.10
2022-12-27T15:58:12.517Z,6.08
2022-12-27T16:00:41.567Z,6.04
2022-12-27T16:03:36.362Z,6.00
2022-12-27T16:06:07.480Z,6.01
2022-12-27T16:08:40.638Z,6.04
2022-12-27T16:11:11.667Z,5.98
2022-12-27T16:13:46.698Z,5.99
2022-12-27T16:16:49.372Z,6.00
2022-12-27T16:19:40.880Z,5.98
2022-12-27T16:22:24.485Z,6.03
2022-12-27T16:24:52.242Z,5.99
2022-12-27T16:27:32.194Z,6.00
2022-12-27T16:30:02.142Z,6.01
2022-12-27T16:32:30.862Z,6.00
2022-12-27T16:35:14.932Z,6.03
2022-12-27T16:37:51.746Z,6.06
2022-12-27T16:40:37.156Z,6.07
2022-12-27T16:43:48.155Z,6.09
2022-12-27T16:46:49.088Z,6.11
2022-12-27T16:49:54.732Z,6.12
2022-12-27T16:52:49.183Z,6.16
2022-12-27T16:55:36.988Z,6.18
2022-12-27T16:58:23.440Z,6.19
2022-12-27T17:00:53.136Z,6.22
2022-12-27T17:03:47.434Z,6.25
2022-12-27T17:06:48.562Z,6.23
2022-12-27T17:09:40.673Z,6.22
2022-12-27T17:12:19.475Z,6.23
2022-12-27T17:14:47.753Z,6.27
2022-12-27T17:17:22.983Z,6.25
2022-12-27T17:19:57.306Z,6.24
2022-12-27T17:22:32.353Z,6.28
2022-12-27T17:25:04.294Z,6.28
2022-12-27T17:27:53.213Z,6.27
2022-12-27T17:30:22.190Z,6.28
2022-12-27T17:33:05.315Z,6.29
2022-12-27T17:35:42.043Z,6.30
2022-12-27T17:38:23.159Z,6.30
2022-12-27T17:41:03.009Z,6.30
2022-12-27T17:43:59.766Z,6.32
2022-12-27T17:46:37.403Z,6.32
2022-12-27T17:49:07.923Z,6.34
2022-12-27T17:52:01.433Z,6.37
2022-12-27T17:54:47.632Z,6.36
2022-12-27T17:57:36.167Z,6.42
2022-12-27T18:00:06.279Z,6.38
2022-12-27T18:02:41.236Z,6.41
2022-12-27T18:05:16.174Z,6.43
2022-12-27T18:07:46.355Z,6.43
2022-12-27T18:10:22.507Z,6.48
2022-12-27T18:12:54.592Z,6.47
2022-12-27T18:15:25.699Z,6.50
2022-12-27T18:17:55.468Z,6.50
2022-12-27T18:20:36.165Z,6.48
2022-12-27T18:23:19.814Z,6.51
2022-12-27T18:25:54.448Z,6.51
2022-12-27T18:28:30.453Z,6.49
2022-12-27T18:31:04.667Z,6.50
2022-12-27T18:33:35.676Z,6.52
2022-12-27T18:36:06.686Z,6.48
2022-12-27T18:38:39.879Z,6.47
2022-12-27T18:41:11.022Z,6.49
2022-12-27T18:43:43.697Z,6.53
2022-12-27T18:46:16.908Z,6.51
2022-12-27T18:48:45.284Z,6.46
2022-12-27T18:51:15.003Z,6.50
2022-12-27T18:53:45.666Z,6.48
2022-12-27T18:56:26.740Z,6.41
2022-12-27T18:59:07.272Z,6.40
2022-12-27T19:01:41.396Z,6.36
2022-12-27T19:04:25.201Z,6.38
2022-12-27T19:07:13.804Z,6.36
2022-12-27T19:09:50.080Z,6.31
2022-12-27T19:12:23.719Z,6.30
2022-12-27T19:14:51.621Z,6.27
2022-12-27T19:17:22.458Z,6.27
2022-12-27T19:19:52.614Z,6.24
2022-12-27T19:22:34.418Z,6.20
2022-12-27T19:25:07.541Z,6.15
2022-12-27T19:27:35.505Z,6.13
2022-12-27T19:30:03.264Z,6.10
2022-12-27T19:32:34.020Z,6.10
2022-12-27T19:35:04.010Z,6.04
2022-12-27T19:37:33.521Z,6.00
2022-12-27T19:40:03.167Z,5.99
2022-12-27T19:42:34.776Z,5.97
2022-12-27T19:45:04.265Z,6.01
2022-12-27T19:47:32.989Z,5.87
2022-12-27T19:50:00.645Z,5.86
2022-12-27T19:52:28.743Z,5.82
2022-12-27T19:55:05.474Z,5.78
2022-12-27T19:57:33.415Z,5.77
2022-12-27T20:00:03.217Z,5.79
2022-12-27T20:02:34.808Z,5.78
2022-12-27T20:05:02.599Z,5.75
2022-12-27T20:07:30.239Z,5.74
2022-12-27T20:09:57.973Z,5.67
2022-12-27T20:12:26.939Z,5.71
2022-12-27T20:14:55.323Z,5.69
2022-12-27T20:17:23.047Z,5.62
2022-12-27T20:19:51.569Z,5.60
2022-12-27T20:22:19.726Z,5.59
2022-12-27T20:24:47.693Z,5.54
2022-12-27T20:27:16.183Z,5.54
2022-12-27T20:29:45.257Z,5.53
2022-12-27T20:32:13.647Z,5.50
2022-12-27T20:34:41.298Z,5.49
2022-12-27T20:37:10.748Z,5.47
2022-12-27T20:39:39.191Z,5.41
2022-12-27T20:42:06.981Z,5.47
2022-12-27T20:44:34.707Z,5.36
2022-12-27T20:47:03.902Z,5.33
2022-12-27T20:49:32.062Z,5.34
2022-12-27T20:51:59.721Z,5.31
2022-12-27T20:54:28.153Z,5.27
2022-12-27T20:56:55.769Z,5.25
2022-12-27T20:59:23.493Z,5.22
2022-12-27T21:01:56.748Z,5.17
2022-12-27T21:04:26.743Z,5.17
2022-12-27T21:06:54.634Z,5.14
2022-12-27T21:09:22.782Z,5.13
2022-12-27T21:11:52.213Z,5.13
2022-12-27T21:14:20.756Z,5.05
2022-12-27T21:16:48.849Z,5.03
2022-12-27T21:19:16.649Z,5.01
2022-12-27T21:21:45.763Z,5.02
2022-12-27T21:24:16.172Z,5.00
2022-12-27T21:26:43.931Z,4.98
2022-12-27T21:29:12.151Z,5.01
2022-12-27T21:31:40.271Z,4.96
2022-12-27T21:34:08.031Z,5.02
2022-12-27T21:36:36.426Z,4.92
2022-12-27T21:39:06.081Z,4.87
2022-12-27T21:41:35.331Z,4.88
2022-12-27T21:44:03.356Z,4.86
2022-12-27T21:46:34.189Z,4.82
2022-12-27T21:49:04.374Z,4.83
2022-12-27T21:51:33.163Z,4.91
2022-12-27T21:54:01.758Z,4.81
2022-12-27T21:56:31.232Z,4.94
2022-12-27T21:58:59.924Z,4.88
2022-12-27T22:01:29.751Z,4.84
2022-12-27T22:03:59.143Z,4.85
2022-12-27T22:06:28.991Z,4.79
2022-12-27T22:08:59.079Z,4.80
2022-12-27T22:11:31.082Z,4.81
2022-12-27T22:13:59.273Z,4.80
2022-12-27T22:16:28.607Z,4.79
2022-12-27T22:19:00.141Z,4.79
2022-12-27T22:21:30.233Z,4.81
2022-12-27T22:24:00.207Z,4.80
2022-12-27T22:26:30.984Z,4.87
2022-12-27T22:28:59.055Z,4.79
2022-12-27T22:31:30.204Z,4.78
2022-12-27T22:33:58.040Z,4.77
2022-12-27T22:36:27.576Z,4.76
2022-12-27T22:38:56.643Z,4.78
2022-12-27T22:41:26.782Z,4.81
2022-12-27T22:43:57.452Z,4.87
2022-12-27T22:46:26.142Z,4.83
2022-12-27T22:48:55.998Z,4.83
2022-12-27T22:51:26.390Z,4.86
2022-12-27T22:53:59.172Z,4.94
2022-12-27T22:56:28.839Z,4.88
2022-12-27T22:58:58.612Z,4.89
2022-12-27T23:01:30.444Z,5.02
2022-12-27T23:04:00.262Z,4.98
2022-12-27T23:06:30.157Z,4.89
2022-12-27T23:08:59.267Z,4.92
2022-12-27T23:11:29.140Z,4.99
2022-12-27T23:14:00.311Z,4.93
2022-12-27T23:16:28.396Z,5.09
2022-12-27T23:18:56.585Z,5.03
2022-12-27T23:21:24.986Z,5.02
2022-12-27T23:23:53.057Z,5.01
2022-12-27T23:26:22.733Z,5.05
2022-12-27T23:28:51.984Z,5.12
2022-12-27T23:31:23.238Z,5.09
2022-12-27T23:33:51.219Z,5.05
2022-12-27T23:36:20.852Z,5.14
2022-12-27T23:38:48.625Z,5.15
2022-12-27T23:41:18.925Z,5.13
2022-12-27T23:43:55.712Z,5.13
2022-12-27T23:46:29.283Z,5.15
2022-12-27T23:48:57.954Z,5.19
2022-12-27T23:51:26.368Z,5.19
2022-12-27T23:53:53.996Z,5.22
2022-12-27T23:56:23.455Z,5.24
2022-12-27T23:58:53.284Z,5.26
